createdAt,value
2022-09-03T00:00:09.367Z,5.60
2022-09-03T00:03:08.712Z,5.43
2022-09-03T00:05:40.292Z,5.05
2022-09-03T00:08:30.946Z,5.03
2022-09-03T00:11:20.969Z,5.22
2022-09-03T00:13:58.966Z,4.93
2022-09-03T00:16:34.087Z,4.20
2022-09-03T00:19:04.097Z,4.78
2022-09-03T00:21:51.569Z,4.97
2022-09-03T00:24:47.821Z,4.63
2022-09-03T00:27:54.329Z,4.30
2022-09-03T00:31:33.001Z,4.50
2022-09-03T00:34:09.728Z,4.15
2022-09-03T00:36:42.507Z,3.75
2022-09-03T00:44:52.291Z,3.88
2022-09-03T00:47:45.392Z,3.90
2022-09-03T00:50:38.920Z,3.33
2022-09-03T00:53:24.518Z,3.25
2022-09-03T00:56:02.645Z,3.35
2022-09-03T00:58:54.988Z,3.38
2022-09-03T01:01:34.731Z,3.65
2022-09-03T01:04:28.622Z,3.95
2022-09-03T01:07:04.539Z,3.85
2022-09-03T01:09:48.162Z,3.70
2022-09-03T01:12:51.201Z,3.85
2022-09-03T01:18:18.204Z,3.58
2022-09-03T01:20:45.446Z,3.78
2022-09-03T01:23:24.860Z,4.05
2022-09-03T01:26:18.320Z,3.80
2022-09-03T01:29:14.894Z,3.78
2022-09-03T01:32:21.292Z,4.20
2022-09-03T01:34:59.567Z,3.88
2022-09-03T01:37:46.605Z,3.83
2022-09-03T01:40:35.569Z,3.97
2022-09-03T01:43:11.303Z,4.03
2022-09-03T01:45:40.290Z,4.35
2022-09-03T01:48:32.210Z,4.80
2022-09-03T01:51:24.129Z,4.70
2022-09-03T01:54:35.043Z,4.93
2022-09-03T01:57:37.045Z,4.32
2022-09-03T02:00:16.347Z,4.50
2022-09-03T02:02:48.106Z,5.47
2022-09-03T02:05:19.419Z,5.28
2022-09-03T02:07:49.276Z,5.85
2022-09-03T02:10:19.801Z,6.15
2022-09-03T02:12:53.509Z,6.32
2022-09-03T02:15:23.394Z,6.63
2022-09-03T02:17:55.216Z,5.90
2022-09-03T02:20:24.132Z,6.50
2022-09-03T02:22:52.215Z,6.22
2022-09-03T02:25:19.252Z,5.80
2022-09-03T02:27:48.469Z,6.47
2022-09-03T02:30:15.615Z,6.70
2022-09-03T02:32:42.634Z,8.13
2022-09-03T02:35:10.642Z,7.78
2022-09-03T02:37:37.513Z,8.85
2022-09-03T02:40:10.296Z,8.63
2022-09-03T02:42:37.438Z,8.25
2022-09-03T02:45:25.125Z,8.00
2022-09-03T02:47:56.428Z,7.68
2022-09-03T02:50:23.987Z,7.70
2022-09-03T02:52:51.252Z,7.75
2022-09-03T02:55:19.572Z,7.50
2022-09-03T02:57:46.782Z,7.72
2022-09-03T03:00:14.610Z,7.68
2022-09-03T03:02:41.977Z,8.25
2022-09-03T03:05:13.464Z,7.63
2022-09-03T03:07:41.355Z,7.18
2022-09-03T03:10:08.936Z,7.45
2022-09-03T03:12:35.954Z,6.82
2022-09-03T03:15:02.997Z,6.85
2022-09-03T03:17:30.710Z,7.18
2022-09-03T03:19:57.563Z,7.72
2022-09-03T03:22:24.577Z,7.45
2022-09-03T03:24:52.681Z,7.10
2022-09-03T03:27:20.129Z,6.57
2022-09-03T03:29:47.095Z,6.80
2022-09-03T03:32:15.289Z,6.32
2022-09-03T03:34:42.200Z,6.22
2022-09-03T03:37:10.679Z,6.80
2022-09-03T03:39:37.665Z,5.50
2022-09-03T03:42:04.738Z,5.05
2022-09-03T03:44:32.415Z,4.95
2022-09-03T03:46:59.247Z,4.65
2022-09-03T03:49:26.109Z,4.90
2022-09-03T03:51:52.988Z,4.82
2022-09-03T03:54:21.038Z,5.10
2022-09-03T03:56:55.761Z,4.78
2022-09-03T03:59:23.106Z,5.45
2022-09-03T04:01:51.570Z,5.70
2022-09-03T04:04:18.442Z,5.68
2022-09-03T04:06:45.394Z,5.68
2022-09-03T04:09:12.333Z,6.13
2022-09-03T04:11:39.248Z,5.53
2022-09-03T04:14:06.216Z,5.90
2022-09-03T04:16:33.197Z,4.60
2022-09-03T04:19:00.241Z,4.45
2022-09-03T04:21:30.696Z,4.88
2022-09-03T04:23:58.529Z,4.95
2022-09-03T04:26:31.588Z,5.35
2022-09-03T04:29:05.224Z,4.95
2022-09-03T04:31:35.402Z,5.03
2022-09-03T04:34:02.630Z,5.18
2022-09-03T04:36:31.039Z,4.90
2022-09-03T04:39:00.201Z,5.40
2022-09-03T04:41:28.915Z,4.85
2022-09-03T04:43:58.414Z,4.80
2022-09-03T04:46:27.780Z,4.97
2022-09-03T04:48:55.441Z,5.22
2022-09-03T04:51:27.307Z,5.78
2022-09-03T04:53:57.691Z,5.28
2022-09-03T04:56:32.884Z,5.35
2022-09-03T04:59:02.451Z,5.35
2022-09-03T05:01:32.404Z,5.70
2022-09-03T05:04:00.727Z,5.28
2022-09-03T05:06:29.241Z,5.53
2022-09-03T05:08:57.321Z,5.00
2022-09-03T05:11:25.313Z,4.82
2022-09-03T05:13:55.511Z,4.40
2022-09-03T05:16:24.101Z,4.93
2022-09-03T05:19:01.835Z,5.00
2022-09-03T05:21:30.829Z,5.20
2022-09-03T05:24:00.213Z,4.68
2022-09-03T05:26:29.472Z,4.88
2022-09-03T05:28:58.991Z,4.93
2022-09-03T05:31:30.199Z,5.53
2022-09-03T05:34:01.560Z,5.30
2022-09-03T05:36:31.509Z,4.97
2022-09-03T05:38:59.302Z,5.32
2022-09-03T05:41:27.684Z,5.50
2022-09-03T05:43:56.147Z,5.45
2022-09-03T05:46:32.223Z,5.38
2022-09-03T05:49:06.745Z,5.10
2022-09-03T05:51:35.609Z,5.38
2022-09-03T05:54:03.940Z,5.70
2022-09-03T05:56:32.794Z,6.15
2022-09-03T05:59:01.935Z,5.32
2022-09-03T06:01:31.970Z,5.18
2022-09-03T06:04:00.178Z,4.88
2022-09-03T06:06:28.395Z,4.88
2022-09-03T06:08:58.122Z,4.43
2022-09-03T06:11:28.179Z,4.00
2022-09-03T06:14:07.166Z,4.70
2022-09-03T06:16:45.629Z,5.05
2022-09-03T06:19:14.516Z,4.38
2022-09-03T06:21:43.638Z,4.88
2022-09-03T06:24:27.870Z,5.10
2022-09-03T06:26:56.709Z,5.20
2022-09-03T06:29:23.654Z,5.07
2022-09-03T06:31:51.323Z,5.00
2022-09-03T06:34:22.670Z,4.85
2022-09-03T06:36:50.511Z,5.20
2022-09-03T06:39:17.479Z,4.18
2022-09-03T06:41:48.252Z,5.05
2022-09-03T06:44:15.322Z,4.63
2022-09-03T06:46:42.830Z,4.47
2022-09-03T06:49:11.410Z,4.43
2022-09-03T06:51:39.074Z,4.22
2022-09-03T06:54:10.433Z,4.50
2022-09-03T06:56:41.166Z,4.53
2022-09-03T06:59:11.391Z,4.55
2022-09-03T07:01:41.035Z,3.78
2022-09-03T07:04:12.926Z,4.57
2022-09-03T07:06:42.072Z,4.28
2022-09-03T07:09:10.468Z,4.57
2022-09-03T07:11:40.538Z,4.60
2022-09-03T07:14:08.108Z,4.03
2022-09-03T07:16:37.109Z,4.60
2022-09-03T07:19:05.380Z,4.57
2022-09-03T07:21:36.724Z,3.97
2022-09-03T07:24:05.759Z,4.30
2022-09-03T07:26:38.557Z,4.40
2022-09-03T07:29:08.008Z,3.83
2022-09-03T07:31:41.721Z,4.40
2022-09-03T07:34:11.656Z,4.50
2022-09-03T07:36:45.664Z,4.25
2022-09-03T07:39:14.169Z,4.20
2022-09-03T07:41:44.084Z,4.80
2022-09-03T07:44:11.998Z,4.78
2022-09-03T07:46:40.320Z,4.38
2022-09-03T07:49:07.601Z,4.60
2022-09-03T07:51:36.462Z,5.25
2022-09-03T07:54:06.999Z,4.57
2022-09-03T07:56:35.840Z,4.68
2022-09-03T07:59:03.461Z,4.78
2022-09-03T08:01:32.779Z,4.25
2022-09-03T08:04:01.087Z,4.43
2022-09-03T08:06:30.259Z,4.57
2022-09-03T08:09:06.508Z,4.25
2022-09-03T08:11:37.141Z,4.20
2022-09-03T08:14:12.016Z,5.22
2022-09-03T08:16:47.307Z,4.53
2022-09-03T08:19:18.170Z,4.55
2022-09-03T08:21:45.214Z,4.38
2022-09-03T08:24:14.604Z,4.03
2022-09-03T08:26:46.255Z,4.55
2022-09-03T08:29:18.723Z,5.00
2022-09-03T08:31:45.863Z,4.88
2022-09-03T08:34:14.620Z,4.80
2022-09-03T08:36:42.715Z,6.20
2022-09-03T08:39:11.527Z,4.75
2022-09-03T08:42:01.969Z,4.60
2022-09-03T08:44:49.259Z,5.95
2022-09-03T08:47:43.313Z,5.20
2022-09-03T08:50:25.246Z,5.20
2022-09-03T08:53:00.961Z,5.00
2022-09-03T08:55:36.306Z,4.63
2022-09-03T08:58:16.730Z,7.55
2022-09-03T09:01:01.579Z,4.97
2022-09-03T09:03:56.681Z,4.97
2022-09-03T09:06:47.968Z,5.20
2022-09-03T09:09:54.880Z,5.30
2022-09-03T09:12:48.177Z,5.35
2022-09-03T09:15:39.472Z,5.95
2022-09-03T09:18:24.952Z,5.28
2022-09-03T09:21:27.803Z,5.40
2022-09-03T09:24:03.955Z,5.43
2022-09-03T09:26:32.080Z,5.35
2022-09-03T09:29:11.438Z,5.68
2022-09-03T09:31:41.085Z,5.97
2022-09-03T09:34:09.657Z,6.03
2022-09-03T09:36:56.091Z,5.53
2022-09-03T09:39:23.833Z,5.70
2022-09-03T09:42:08.284Z,6.35
2022-09-03T09:44:40.766Z,6.88
2022-09-03T09:49:37.301Z,5.75
2022-09-03T09:52:16.824Z,6.13
2022-09-03T09:54:48.349Z,5.93
2022-09-03T09:57:18.573Z,6.03
2022-09-03T09:59:49.569Z,5.93
2022-09-03T10:02:28.599Z,5.47
2022-09-03T10:05:24.242Z,6.05
2022-09-03T10:08:02.079Z,6.10
2022-09-03T10:10:32.944Z,5.30
2022-09-03T10:13:08.392Z,5.15
2022-09-03T10:15:55.940Z,5.53
2022-09-03T10:18:44.360Z,5.93
2022-09-03T10:21:32.832Z,5.65
2022-09-03T10:24:30.522Z,6.05
2022-09-03T10:26:58.430Z,5.70
2022-09-03T10:29:30.210Z,6.03
2022-09-03T10:32:25.619Z,6.03
2022-09-03T10:35:22.766Z,5.90
2022-09-03T10:38:03.303Z,6.00
2022-09-03T10:40:38.041Z,6.55
2022-09-03T10:43:07.755Z,5.90
2022-09-03T10:45:59.335Z,6.40
2022-09-03T10:48:45.188Z,6.90
2022-09-03T10:51:28.598Z,6.50
2022-09-03T10:54:24.426Z,6.10
2022-09-03T10:57:19.796Z,5.88
2022-09-03T11:00:06.281Z,6.20
2022-09-03T11:02:52.915Z,6.13
2022-09-03T11:05:49.319Z,5.50
2022-09-03T11:08:23.895Z,6.45
2022-09-03T11:10:56.551Z,5.95
2022-09-03T11:14:10.273Z,5.05
2022-09-03T11:16:46.269Z,4.78
2022-09-03T11:19:24.740Z,4.95
2022-09-03T11:21:53.241Z,4.63
2022-09-03T11:24:23.470Z,4.70
2022-09-03T11:27:02.237Z,4.65
2022-09-03T11:29:48.458Z,5.50
2022-09-03T11:32:26.534Z,5.72
2022-09-03T11:34:54.803Z,6.05
2022-09-03T11:37:25.940Z,5.57
2022-09-03T11:40:13.657Z,5.93
2022-09-03T11:42:42.866Z,6.05
2022-09-03T11:45:28.056Z,5.68
2022-09-03T11:47:55.085Z,4.88
2022-09-03T11:50:28.904Z,5.60
2022-09-03T11:53:24.464Z,6.78
2022-09-03T11:55:59.172Z,5.78
2022-09-03T11:58:42.988Z,5.35
2022-09-03T12:01:16.265Z,5.57
2022-09-03T12:04:03.652Z,5.30
2022-09-03T12:06:49.300Z,5.32
2022-09-03T12:09:45.715Z,5.00
2022-09-03T12:12:38.371Z,5.05
2022-09-03T12:15:35.676Z,4.15
2022-09-03T12:18:19.768Z,4.15
2022-09-03T12:20:50.841Z,4.30
2022-09-03T12:23:43.151Z,4.05
2022-09-03T12:26:14.955Z,4.03
2022-09-03T12:28:48.617Z,4.35
2022-09-03T12:31:22.645Z,4.53
2022-09-03T12:34:01.819Z,4.55
2022-09-03T12:36:42.081Z,4.30
2022-09-03T12:40:03.749Z,4.10
2022-09-03T12:42:11.859Z,3.72
2022-09-03T12:47:34.349Z,4.10
2022-09-03T12:50:08.617Z,4.45
2022-09-03T12:52:40.402Z,4.45
2022-09-03T12:55:28.700Z,4.53
2022-09-03T12:58:13.804Z,4.72
2022-09-03T13:00:57.837Z,4.55
2022-09-03T13:03:54.771Z,4.32
2022-09-03T13:06:25.827Z,4.28
2022-09-03T13:09:02.229Z,3.92
2022-09-03T13:11:33.072Z,3.10
2022-09-03T13:14:10.164Z,3.20
2022-09-03T13:16:46.170Z,2.85
2022-09-03T13:19:40.827Z,2.35
2022-09-03T13:22:38.953Z,2.30
2022-09-03T13:25:19.870Z,2.40
2022-09-03T13:28:00.517Z,2.20
2022-09-03T13:31:01.094Z,2.17
2022-09-03T13:33:41.929Z,2.53
2022-09-03T13:36:21.360Z,2.42
2022-09-03T13:39:03.105Z,2.30
2022-09-03T13:42:06.153Z,2.72
2022-09-03T13:44:56.588Z,2.60
2022-09-03T13:48:03.607Z,2.50
2022-09-03T13:50:45.704Z,2.70
2022-09-03T13:53:32.334Z,2.70
2022-09-03T13:56:13.954Z,2.72
2022-09-03T13:58:51.141Z,2.22
2022-09-03T14:01:43.872Z,2.38
2022-09-03T14:04:25.530Z,3.10
2022-09-03T14:07:04.106Z,2.67
2022-09-03T14:09:56.788Z,2.60
2022-09-03T14:13:01.639Z,2.65
2022-09-03T14:15:45.595Z,2.50
2022-09-03T14:18:30.765Z,2.67
2022-09-03T14:21:06.143Z,2.50
2022-09-03T14:23:49.223Z,3.10
2022-09-03T14:26:38.138Z,3.17
2022-09-03T14:29:16.257Z,3.00
2022-09-03T14:32:13.697Z,2.65
2022-09-03T14:34:59.630Z,3.08
2022-09-03T14:37:48.643Z,3.10
2022-09-03T14:40:15.688Z,4.03
2022-09-03T14:42:42.920Z,4.50
2022-09-03T14:45:37.454Z,4.82
2022-09-03T14:48:32.776Z,4.18
2022-09-03T14:51:40.587Z,4.50
2022-09-03T14:54:31.237Z,4.43
2022-09-03T14:57:26.652Z,4.45
2022-09-03T15:00:04.858Z,5.00
2022-09-03T15:02:34.909Z,4.28
2022-09-03T15:05:12.218Z,4.78
2022-09-03T15:07:52.497Z,4.93
2022-09-03T15:10:25.139Z,4.70
2022-09-03T15:12:55.248Z,4.93
2022-09-03T15:15:48.358Z,4.30
2022-09-03T15:18:34.179Z,4.65
2022-09-03T15:21:29.147Z,4.85
2022-09-03T15:24:14.072Z,4.95
2022-09-03T15:27:11.037Z,5.03
2022-09-03T15:29:52.135Z,5.13
2022-09-03T15:32:26.628Z,4.90
2022-09-03T15:35:07.285Z,5.70
2022-09-03T15:37:57.781Z,5.53
2022-09-03T15:40:51.515Z,5.28
2022-09-03T15:43:24.022Z,4.97
2022-09-03T15:45:58.374Z,4.88
2022-09-03T15:48:57.979Z,6.20
2022-09-03T15:51:34.253Z,5.63
2022-09-03T15:54:12.900Z,4.78
2022-09-03T15:56:55.896Z,5.40
2022-09-03T15:59:41.057Z,4.72
2022-09-03T16:02:11.990Z,5.68
2022-09-03T16:05:06.336Z,5.35
2022-09-03T16:07:39.784Z,5.15
2022-09-03T16:10:25.972Z,5.72
2022-09-03T16:13:03.713Z,5.82
2022-09-03T16:15:43.253Z,5.82
2022-09-03T16:18:25.104Z,5.60
2022-09-03T16:21:10.444Z,5.90
2022-09-03T16:23:55.274Z,5.38
2022-09-03T16:26:37.357Z,5.53
2022-09-03T16:29:11.948Z,5.05
2022-09-03T16:32:18.911Z,5.50
2022-09-03T16:35:18.426Z,5.57
2022-09-03T16:38:12.177Z,5.18
2022-09-03T16:40:56.756Z,5.40
2022-09-03T16:43:52.086Z,5.30
2022-09-03T16:46:46.674Z,5.00
2022-09-03T16:49:23.523Z,5.10
2022-09-03T16:52:10.566Z,4.82
2022-09-03T16:55:04.139Z,6.82
2022-09-03T16:58:00.183Z,5.60
2022-09-03T17:00:40.165Z,6.75
2022-09-03T17:03:26.499Z,6.65
2022-09-03T17:06:00.789Z,10.38
2022-09-03T17:08:50.245Z,9.77
2022-09-03T17:11:37.976Z,7.55
2022-09-03T17:14:17.055Z,7.43
2022-09-03T17:17:24.558Z,6.30
2022-09-03T17:20:04.777Z,8.05
2022-09-03T17:22:51.299Z,6.75
2022-09-03T17:25:36.145Z,6.28
2022-09-03T17:28:32.947Z,6.13
2022-09-03T17:31:41.437Z,6.35
2022-09-03T17:34:14.208Z,6.72
2022-09-03T17:37:02.227Z,6.40
2022-09-03T17:39:52.299Z,7.30
2022-09-03T17:42:52.747Z,7.72
2022-09-03T17:45:53.307Z,8.25
2022-09-03T17:48:45.006Z,7.35
2022-09-03T17:51:46.280Z,7.88
2022-09-03T17:54:34.464Z,7.78
2022-09-03T17:57:30.910Z,9.25
2022-09-03T18:00:22.980Z,7.60
2022-09-03T18:02:58.462Z,8.45
2022-09-03T18:05:34.162Z,7.70
2022-09-03T18:08:12.588Z,7.63
2022-09-03T18:11:11.759Z,7.45
2022-09-03T18:14:05.340Z,7.47
2022-09-03T18:16:34.982Z,6.80
2022-09-03T18:19:58.096Z,6.38
2022-09-03T18:22:54.409Z,5.60
2022-09-03T18:25:43.641Z,6.47
2022-09-03T18:28:34.340Z,5.93
2022-09-03T18:31:19.983Z,5.15
2022-09-03T18:34:05.443Z,4.68
2022-09-03T18:36:51.490Z,4.57
2022-09-03T18:39:48.193Z,4.43
2022-09-03T18:42:54.903Z,4.05
2022-09-03T18:49:58.869Z,3.13
2022-09-03T18:52:53.684Z,3.13
2022-09-03T18:55:45.445Z,3.10
2022-09-03T18:58:57.993Z,3.03
2022-09-03T19:01:58.297Z,3.47
2022-09-03T19:05:07.141Z,3.60
2022-09-03T19:08:17.984Z,3.63
2022-09-03T19:11:20.218Z,4.60
2022-09-03T19:14:06.207Z,3.40
2022-09-03T19:17:21.820Z,4.00
2022-09-03T19:20:42.038Z,3.97
2022-09-03T19:23:28.746Z,3.15
2022-09-03T19:26:19.424Z,3.78
2022-09-03T19:29:08.592Z,4.18
2022-09-03T19:31:56.872Z,6.53
2022-09-03T19:34:45.397Z,6.03
2022-09-03T19:37:44.153Z,5.20
2022-09-03T19:40:41.805Z,4.93
2022-09-03T19:43:37.011Z,3.75
2022-09-03T19:46:41.110Z,4.63
2022-09-03T19:49:39.519Z,3.72
2022-09-03T19:52:28.076Z,4.07
2022-09-03T19:55:20.885Z,4.35
2022-09-03T20:01:22.955Z,3.90
2022-09-03T20:04:10.081Z,3.78
2022-09-03T20:06:56.586Z,5.13
2022-09-03T20:09:52.621Z,4.40
2022-09-03T20:12:22.553Z,4.38
2022-09-03T20:14:52.542Z,4.28
2022-09-03T20:17:40.771Z,4.93
2022-09-03T20:20:17.621Z,4.43
2022-09-03T20:23:01.422Z,4.18
2022-09-03T20:26:06.190Z,3.92
2022-09-03T20:28:50.281Z,4.40
2022-09-03T20:31:20.323Z,4.53
2022-09-03T20:34:15.071Z,4.78
2022-09-03T20:36:57.341Z,4.95
2022-09-03T20:39:49.661Z,4.97
2022-09-03T20:42:44.038Z,4.47
2022-09-03T20:45:16.777Z,4.63
2022-09-03T20:48:05.981Z,4.10
2022-09-03T20:50:56.564Z,4.20
2022-09-03T20:53:39.154Z,4.30
2022-09-03T20:58:53.136Z,4.90
2022-09-03T21:01:43.002Z,5.03
2022-09-03T21:04:26.451Z,4.32
2022-09-03T21:07:13.302Z,4.88
2022-09-03T21:09:52.938Z,4.50
2022-09-03T21:12:22.894Z,4.57
2022-09-03T21:15:09.717Z,4.45
2022-09-03T21:18:06.648Z,5.00
2022-09-03T21:20:46.706Z,5.50
2022-09-03T21:23:31.392Z,6.10
2022-09-03T21:26:14.728Z,5.85
2022-09-03T21:28:59.003Z,5.85
2022-09-03T21:31:48.568Z,5.70
2022-09-03T21:34:35.890Z,5.30
2022-09-03T21:37:05.767Z,4.97
2022-09-03T21:39:44.703Z,5.07
2022-09-03T21:42:18.516Z,4.85
2022-09-03T21:45:00.280Z,4.60
2022-09-03T21:47:31.267Z,5.45
2022-09-03T21:50:17.035Z,5.05
2022-09-03T21:52:54.028Z,5.05
2022-09-03T21:55:33.595Z,4.63
2022-09-03T21:58:13.922Z,5.43
2022-09-03T22:00:41.637Z,5.63
2022-09-03T22:03:10.376Z,4.90
2022-09-03T22:06:06.492Z,5.40
2022-09-03T22:09:06.596Z,5.10
2022-09-03T22:11:44.923Z,4.63
2022-09-03T22:14:17.281Z,5.18
2022-09-03T22:17:02.844Z,4.97
2022-09-03T22:19:37.632Z,5.45
2022-09-03T22:22:57.675Z,4.70
2022-09-03T22:25:38.569Z,4.55
2022-09-03T22:28:15.184Z,4.63
2022-09-03T22:30:54.187Z,5.47
2022-09-03T22:33:46.612Z,4.82
2022-09-03T22:36:35.926Z,5.03
2022-09-03T22:39:33.144Z,5.28
2022-09-03T22:42:24.362Z,5.15
2022-09-03T22:45:08.607Z,4.90
2022-09-03T22:48:00.497Z,5.10
2022-09-03T22:50:47.597Z,5.40
2022-09-03T22:53:33.483Z,4.97
2022-09-03T22:56:03.160Z,5.38
2022-09-03T22:58:46.733Z,4.97
2022-09-03T23:01:17.987Z,5.15
2022-09-03T23:03:49.980Z,5.32
2022-09-03T23:06:31.927Z,5.15
2022-09-03T23:09:15.791Z,5.55
2022-09-03T23:14:22.537Z,4.80
2022-09-03T23:16:54.516Z,5.68
2022-09-03T23:19:35.565Z,5.68
2022-09-03T23:22:19.593Z,5.50
2022-09-03T23:25:08.491Z,5.22
2022-09-03T23:27:58.680Z,5.68
2022-09-03T23:30:25.624Z,5.78
2022-09-03T23:32:57.100Z,5.47
2022-09-03T23:35:28.629Z,5.70
2022-09-03T23:38:49.790Z,5.57
2022-09-03T23:41:25.960Z,5.15
2022-09-03T23:44:07.102Z,5.68
2022-09-03T23:46:43.306Z,5.40
2022-09-03T23:49:47.633Z,5.97
2022-09-03T23:52:38.933Z,5.40
2022-09-03T23:55:23.401Z,5.43
2022-09-03T23:58:09.444Z,5.20
